Olivesburg, Ohio
Current Conditions -  °F | °C
As of 9:48 PM on Wednesday 26 Nov 2014 (Local Time) from KMFD Reporting Station
Broken Clouds Broken Clouds  
Wind Chill: 30°   Ceiling: 3000
Heat Index: 30°   Visibility: 7mi
Dew Point: 28°   Wind: 3mph
Humidity: 93%   Direction: 320°NW
Pressure: 30.03"   Gusts: NA
Location:  40.8738°N, 82.3197°W
Report Text: KMFD 270248Z 32003KT 7SM BKN030 M01/M02 A3003 RMK AO2
Loading
Personal Weather Stations






























Interactive Weather Map New forecast layout! Learn more

10-Day Weather Forecast

Advertisements
Track Severe Weather on mobile